Time;durP1;ratioP1;P1;durP2;ratioP2;P2;SDS_P1;SDS_P2;PMS_P1;PMS_P2;Temp;Humidity;BMP_temperature;BMP_pressure;BME280_temperature;BME280_humidity;BME280_pressure;Samples;Min_cycle;Max_cycle;Signal;HPM_P1;HPM_P2
2023/06/02 00:00:42;;;;;;;17.60;6.68;;;15.70;99.90;;;;;;5039551;28;20585;-75
2023/06/02 00:03:08;;;;;;;16.10;4.82;;;15.70;99.90;;;;;;5039710;28;20222;-74
2023/06/02 00:05:34;;;;;;;24.45;10.88;;;15.70;99.90;;;;;;5035225;28;20200;-74
2023/06/02 00:08:02;;;;;;;17.80;6.05;;;15.60;99.90;;;;;;5039465;28;20214;-73
2023/06/02 00:10:28;;;;;;;23.92;8.57;;;15.60;99.90;;;;;;5037970;28;20214;-74
2023/06/02 00:12:54;;;;;;;9.50;4.82;;;15.60;99.90;;;;;;5039635;28;20206;-74
2023/06/02 00:15:19;;;;;;;13.70;5.07;;;15.50;99.90;;;;;;5035817;28;20204;-74
2023/06/02 00:17:45;;;;;;;16.77;5.25;;;15.50;99.90;;;;;;5038372;28;20176;-74
2023/06/02 00:20:11;;;;;;;18.63;6.05;;;15.40;99.90;;;;;;5027877;28;20256;-73
2023/06/02 00:22:38;;;;;;;18.08;4.18;;;15.50;99.90;;;;;;5036049;28;20218;-73
2023/06/02 00:25:04;;;;;;;14.95;4.20;;;15.30;99.90;;;;;;5037485;28;20216;-74
2023/06/02 00:27:30;;;;;;;15.25;4.05;;;15.40;99.90;;;;;;5037132;28;20212;-74
2023/06/02 00:29:56;;;;;;;15.02;3.65;;;15.30;99.90;;;;;;5045558;28;20183;-75
2023/06/02 00:32:22;;;;;;;14.65;4.05;;;15.40;99.90;;;;;;5035311;28;20723;-75
2023/06/02 00:34:48;;;;;;;16.90;4.13;;;15.00;99.90;;;;;;5039531;28;20281;-75
2023/06/02 00:37:14;;;;;;;13.15;4.18;;;15.10;99.90;;;;;;5042855;28;20273;-73
2023/06/02 00:39:39;;;;;;;14.20;3.42;;;15.10;99.90;;;;;;5037585;28;20291;-74
2023/06/02 00:42:06;;;;;;;12.18;3.58;;;15.20;99.90;;;;;;5042820;28;20203;-74
2023/06/02 00:44:34;;;;;;;12.57;3.97;;;15.20;99.90;;;;;;5037466;28;20771;-74
2023/06/02 00:47:00;;;;;;;17.23;4.32;;;15.10;99.90;;;;;;5042941;28;20253;-74
2023/06/02 00:49:25;;;;;;;12.63;3.95;;;15.10;99.90;;;;;;5039844;28;20209;-72
2023/06/02 00:51:53;;;;;;;13.57;4.10;;;14.90;99.90;;;;;;5044801;28;20203;-74
2023/06/02 00:54:19;;;;;;;16.67;4.63;;;14.80;99.90;;;;;;5039598;28;20204;-73
2023/06/02 00:56:46;;;;;;;13.52;4.00;;;14.90;99.90;;;;;;5037584;28;20164;-75
2023/06/02 00:59:12;;;;;;;16.98;3.97;;;14.60;99.90;;;;;;5045094;28;20287;-71
2023/06/02 01:01:39;;;;;;;15.02;3.97;;;14.60;99.90;;;;;;5041228;28;20578;-74
2023/06/02 01:04:05;;;;;;;14.40;3.97;;;14.70;99.90;;;;;;5044109;28;20262;-73
2023/06/02 01:06:37;;;;;;;18.77;4.30;;;14.80;99.90;;;;;;5032969;28;20399;-74
2023/06/02 01:09:05;;;;;;;18.13;3.72;;;14.80;99.90;;;;;;5038148;28;20176;-74
2023/06/02 01:11:32;;;;;;;16.50;3.97;;;14.60;99.90;;;;;;5037163;28;20275;-74
2023/06/02 01:13:58;;;;;;;15.10;4.03;;;14.70;99.90;;;;;;5040560;28;20257;-76
2023/06/02 01:16:26;;;;;;;11.98;3.88;;;14.70;99.90;;;;;;5041334;28;20219;-73
2023/06/02 01:18:52;;;;;;;12.60;4.53;;;14.80;99.90;;;;;;5036901;28;20291;-73
2023/06/02 01:21:23;;;;;;;17.80;4.75;;;14.60;99.90;;;;;;5041195;28;20279;-73
2023/06/02 01:23:57;;;;;;;10.48;3.72;;;14.70;99.90;;;;;;5041150;28;20204;-75
2023/06/02 01:26:23;;;;;;;13.57;3.90;;;14.50;99.90;;;;;;5036043;28;20674;-73
2023/06/02 01:28:49;;;;;;;15.45;3.85;;;14.50;99.90;;;;;;5039720;28;20578;-73
2023/06/02 01:31:22;;;;;;;10.38;3.50;;;14.60;99.90;;;;;;5040400;28;20200;-74
2023/06/02 01:34:12;;;;;;;22.52;4.32;;;14.50;99.90;;;;;;5035598;28;20204;-73
2023/06/02 01:36:40;;;;;;;18.40;4.75;;;14.60;99.90;;;;;;5040777;28;20204;-72
2023/06/02 01:39:08;;;;;;;17.92;4.53;;;14.20;99.90;;;;;;5043033;28;20241;-74
2023/06/02 01:41:39;;;;;;;18.40;5.43;;;14.30;99.90;;;;;;5032386;28;20197;-74
2023/06/02 01:44:05;;;;;;;16.70;4.15;;;14.40;99.90;;;;;;5041970;28;20207;-73
2023/06/02 01:46:30;;;;;;;16.43;4.03;;;14.30;99.90;;;;;;5041012;28;20204;-73
2023/06/02 01:48:56;;;;;;;18.92;4.28;;;14.30;99.90;;;;;;5040613;28;20204;-73
2023/06/02 01:51:22;;;;;;;15.18;4.55;;;14.30;99.90;;;;;;5038648;28;20220;-73
2023/06/02 01:53:47;;;;;;;15.60;4.40;;;14.40;99.90;;;;;;5037449;28;20180;-73
2023/06/02 01:56:13;;;;;;;19.60;4.20;;;14.40;99.90;;;;;;5039589;28;20557;-73
2023/06/02 01:58:38;;;;;;;11.67;3.90;;;14.30;99.90;;;;;;5039554;28;20269;-73
2023/06/02 02:01:05;;;;;;;14.67;4.20;;;14.10;99.90;;;;;;5043061;28;20279;-73
2023/06/02 02:03:31;;;;;;;17.88;5.22;;;14.00;99.90;;;;;;5039532;28;20212;-72
2023/06/02 02:05:57;;;;;;;11.47;4.20;;;14.00;99.90;;;;;;5038747;28;20251;-73
2023/06/02 02:08:23;;;;;;;11.53;4.20;;;14.00;99.90;;;;;;5040792;28;20259;-74
2023/06/02 02:10:48;;;;;;;16.77;4.70;;;14.10;99.90;;;;;;5042458;28;20245;-73
2023/06/02 02:13:14;;;;;;;16.53;4.77;;;14.00;99.90;;;;;;5039006;28;20593;-73
2023/06/02 02:15:40;;;;;;;15.83;4.93;;;13.70;99.90;;;;;;5038001;28;20204;-73
2023/06/02 02:18:06;;;;;;;11.65;4.72;;;13.90;99.90;;;;;;5038751;28;20267;-73
2023/06/02 02:20:32;;;;;;;13.83;4.73;;;13.80;99.90;;;;;;5036780;28;20196;-73
2023/06/02 02:22:58;;;;;;;14.17;4.70;;;13.80;99.90;;;;;;5034855;28;20697;-74
2023/06/02 02:25:24;;;;;;;15.00;4.90;;;13.80;99.90;;;;;;5036085;28;20706;-75
2023/06/02 02:27:49;;;;;;;16.47;5.00;;;13.90;99.90;;;;;;5039913;28;20242;-73
2023/06/02 02:30:15;;;;;;;18.87;5.07;;;13.80;99.90;;;;;;5035490;28;20341;-73
2023/06/02 02:32:46;;;;;;;23.00;5.07;;;13.50;99.90;;;;;;5036890;28;20199;-72
2023/06/02 02:35:12;;;;;;;21.13;5.57;;;13.60;99.90;;;;;;5041368;28;20218;-69
2023/06/02 02:37:38;;;;;;;19.60;5.10;;;13.70;99.90;;;;;;5040266;28;20299;-73
2023/06/02 02:40:05;;;;;;;19.03;4.70;;;13.70;99.90;;;;;;5037716;28;20207;-74
2023/06/02 02:42:33;;;;;;;15.20;4.93;;;13.60;99.90;;;;;;5037908;28;20709;-73
2023/06/02 02:45:00;;;;;;;13.37;4.60;;;13.50;99.90;;;;;;5030218;28;20233;-73
2023/06/02 02:47:26;;;;;;;19.70;5.10;;;13.60;99.90;;;;;;5028768;28;20250;-73
2023/06/02 02:49:51;;;;;;;14.87;5.03;;;13.70;99.90;;;;;;5041034;28;20195;-74
2023/06/02 02:52:17;;;;;;;14.80;4.57;;;13.70;99.90;;;;;;5037148;28;20240;-74
2023/06/02 02:54:42;;;;;;;22.17;4.82;;;13.70;99.90;;;;;;5039481;28;20204;-74
2023/06/02 02:57:08;;;;;;;16.30;4.67;;;13.70;99.90;;;;;;5030835;28;20254;-74
2023/06/02 02:59:37;;;;;;;15.73;4.90;;;13.80;99.90;;;;;;5031122;28;20184;-74
2023/06/02 03:02:05;;;;;;;14.90;3.97;;;13.70;99.90;;;;;;5033694;28;20217;-74
2023/06/02 03:04:32;;;;;;;18.00;4.90;;;13.70;99.90;;;;;;5031214;28;20223;-74
2023/06/02 03:06:58;;;;;;;15.77;4.53;;;13.80;99.90;;;;;;5034493;28;20343;-73
2023/06/02 03:09:24;;;;;;;14.30;4.47;;;13.70;99.90;;;;;;5034562;28;20282;-73
2023/06/02 03:11:50;;;;;;;19.03;4.40;;;13.70;99.90;;;;;;5034707;28;20684;-74
2023/06/02 03:14:15;;;;;;;15.33;4.83;;;13.60;99.90;;;;;;5034982;28;20337;-73
2023/06/02 03:16:44;;;;;;;15.73;4.37;;;13.60;99.90;;;;;;5036112;23;20240;-77
2023/06/02 03:19:14;;;;;;;19.40;4.93;;;13.80;99.90;;;;;;5008153;28;20591;-77
2023/06/02 03:21:44;;;;;;;17.48;4.85;;;13.60;99.90;;;;;;5008094;28;20223;-78
2023/06/02 03:24:17;;;;;;;19.55;4.55;;;13.80;99.90;;;;;;5003024;28;20745;-77
2023/06/02 03:26:44;;;;;;;14.40;4.40;;;13.90;99.90;;;;;;5006780;28;20634;-78
2023/06/02 03:29:10;;;;;;;15.07;4.15;;;13.80;99.90;;;;;;5003760;28;20224;-78
2023/06/02 03:31:36;;;;;;;22.80;5.00;;;13.90;99.90;;;;;;5008459;28;20284;-77
2023/06/02 03:34:03;;;;;;;18.13;4.37;;;13.70;99.90;;;;;;5005077;28;20656;-77
2023/06/02 03:36:30;;;;;;;16.83;4.70;;;13.70;99.90;;;;;;5008256;28;20213;-77
2023/06/02 03:38:55;;;;;;;16.50;4.57;;;13.90;99.90;;;;;;5004728;28;20683;-78
2023/06/02 03:41:22;;;;;;;20.80;5.53;;;14.00;99.90;;;;;;5009114;28;20209;-78
2023/06/02 03:43:47;;;;;;;19.48;5.03;;;13.90;99.90;;;;;;5004305;28;20710;-78
2023/06/02 03:46:13;;;;;;;16.48;4.50;;;14.40;99.90;;;;;;5000602;28;20217;-77
2023/06/02 03:48:39;;;;;;;19.45;4.22;;;14.40;99.90;;;;;;5007662;28;20209;-78
2023/06/02 03:51:04;;;;;;;16.65;3.90;;;14.20;99.90;;;;;;5004604;28;20176;-78
2023/06/02 03:53:30;;;;;;;20.23;4.63;;;14.10;99.90;;;;;;5001975;28;20178;-77
2023/06/02 03:55:56;;;;;;;18.15;4.60;;;14.20;99.90;;;;;;5007253;28;20209;-78
2023/06/02 03:58:23;;;;;;;15.75;4.70;;;14.20;99.90;;;;;;5002208;28;20411;-76
2023/06/02 04:00:49;;;;;;;15.85;4.53;;;14.10;99.90;;;;;;5000286;28;20341;-79
2023/06/02 04:03:15;;;;;;;20.65;4.68;;;14.10;99.90;;;;;;5003784;28;20256;-77
2023/06/02 04:05:41;;;;;;;22.25;4.40;;;13.90;99.90;;;;;;5006872;28;20205;-78
2023/06/02 04:08:07;;;;;;;20.85;4.63;;;13.80;99.90;;;;;;5002130;28;20201;-78
2023/06/02 04:10:33;;;;;;;20.40;4.57;;;13.80;99.90;;;;;;5008973;28;20228;-78
2023/06/02 04:12:59;;;;;;;18.77;4.85;;;13.80;99.90;;;;;;4998460;28;20332;-78
2023/06/02 04:15:25;;;;;;;20.45;4.82;;;13.80;99.90;;;;;;5004645;28;20295;-77
2023/06/02 04:17:51;;;;;;;19.93;4.70;;;13.70;99.90;;;;;;4999905;28;20197;-78
2023/06/02 04:20:16;;;;;;;12.20;3.83;;;13.50;99.90;;;;;;5005593;28;20753;-78
2023/06/02 04:22:42;;;;;;;13.25;4.10;;;13.60;99.90;;;;;;5006948;28;20720;-77
2023/06/02 04:25:08;;;;;;;16.60;4.25;;;13.60;99.90;;;;;;5005843;28;20581;-78
2023/06/02 04:27:34;;;;;;;17.48;4.40;;;13.80;99.90;;;;;;5002871;28;20290;-77
2023/06/02 04:30:01;;;;;;;18.77;4.80;;;14.00;99.90;;;;;;5002441;28;20181;-78
2023/06/02 04:32:27;;;;;;;14.50;4.35;;;14.10;99.90;;;;;;5002172;28;20220;-77
2023/06/02 04:34:53;;;;;;;15.63;4.30;;;14.00;99.90;;;;;;5004913;28;20225;-78
2023/06/02 04:37:18;;;;;;;17.60;4.75;;;14.00;99.90;;;;;;5004552;28;20216;-77
2023/06/02 04:39:47;;;;;;;18.80;4.10;;;14.00;99.90;;;;;;5001007;28;20944;-78
2023/06/02 04:42:13;;;;;;;15.85;4.80;;;14.00;99.90;;;;;;5001739;28;20197;-77
2023/06/02 04:44:40;;;;;;;18.92;4.68;;;14.00;99.90;;;;;;5000730;28;20730;-79
2023/06/02 04:47:06;;;;;;;15.20;4.32;;;14.10;99.90;;;;;;5001028;28;20239;-78
2023/06/02 04:49:32;;;;;;;18.05;5.40;;;13.80;99.90;;;;;;4997938;28;20689;-78
2023/06/02 04:51:58;;;;;;;18.58;4.70;;;14.00;99.90;;;;;;5008614;28;20197;-77
2023/06/02 04:54:23;;;;;;;18.52;4.65;;;13.90;99.90;;;;;;5004938;28;20814;-77
2023/06/02 04:56:49;;;;;;;16.27;4.55;;;14.00;99.90;;;;;;5005226;28;20220;-78
2023/06/02 04:59:15;;;;;;;17.40;4.53;;;13.90;99.90;;;;;;5002032;28;20258;-78
2023/06/02 05:01:41;;;;;;;13.07;4.25;;;14.00;99.90;;;;;;4999891;28;20206;-78
2023/06/02 05:04:06;;;;;;;18.88;4.50;;;14.00;99.90;;;;;;5000444;28;20216;-78
2023/06/02 05:06:32;;;;;;;16.40;4.85;;;14.10;99.90;;;;;;5001008;28;20283;-77
2023/06/02 05:08:58;;;;;;;20.60;4.97;;;14.20;99.90;;;;;;4998309;28;20203;-78
2023/06/02 05:11:23;;;;;;;15.15;4.72;;;14.20;99.90;;;;;;4999301;28;20177;-78
2023/06/02 05:13:49;;;;;;;17.73;4.78;;;14.10;99.90;;;;;;5004513;28;20206;-77
2023/06/02 05:16:14;;;;;;;16.88;5.05;;;13.80;99.90;;;;;;5004470;28;20302;-77
2023/06/02 05:18:41;;;;;;;18.60;4.68;;;13.90;99.90;;;;;;5006380;28;20296;-77
2023/06/02 05:21:06;;;;;;;18.13;5.10;;;14.00;99.90;;;;;;5010307;28;20730;-78
2023/06/02 05:23:32;;;;;;;20.80;4.88;;;14.00;99.90;;;;;;5004643;28;20189;-77
2023/06/02 05:25:57;;;;;;;14.95;4.82;;;13.80;99.90;;;;;;5008137;28;20259;-78
2023/06/02 05:28:23;;;;;;;21.80;5.15;;;13.90;99.90;;;;;;5002104;28;20202;-78
2023/06/02 05:30:49;;;;;;;19.67;4.53;;;14.10;99.90;;;;;;5006707;28;20204;-78
2023/06/02 05:33:14;;;;;;;16.63;4.50;;;14.20;99.90;;;;;;5011945;28;20184;-78
2023/06/02 05:35:40;;;;;;;12.38;4.18;;;14.30;99.90;;;;;;5002542;28;20185;-78
2023/06/02 05:38:06;;;;;;;22.67;5.07;;;14.30;99.90;;;;;;5005810;28;20263;-78
2023/06/02 05:40:31;;;;;;;14.68;4.32;;;14.40;99.90;;;;;;5004637;28;20221;-77
2023/06/02 05:42:57;;;;;;;15.07;4.70;;;14.50;99.90;;;;;;5003672;28;20685;-78
2023/06/02 05:45:22;;;;;;;15.88;3.95;;;14.40;99.90;;;;;;5003404;28;20263;-78
2023/06/02 05:47:48;;;;;;;17.88;5.47;;;14.40;99.90;;;;;;5003892;28;20185;-79
2023/06/02 05:50:14;;;;;;;17.02;4.78;;;14.50;99.90;;;;;;5006191;28;20213;-77
2023/06/02 05:52:40;;;;;;;23.60;5.00;;;14.60;99.90;;;;;;5007196;28;20221;-78
2023/06/02 05:55:06;;;;;;;13.07;4.40;;;14.60;99.90;;;;;;5006188;28;20291;-79
2023/06/02 05:57:31;;;;;;;17.05;4.40;;;14.70;99.90;;;;;;5002609;28;20266;-77
2023/06/02 05:59:57;;;;;;;20.02;4.82;;;14.70;99.90;;;;;;5005011;28;20184;-79
2023/06/02 06:02:23;;;;;;;16.67;5.53;;;14.70;99.90;;;;;;5002745;28;20730;-79
2023/06/02 06:04:48;;;;;;;14.55;4.57;;;14.50;99.90;;;;;;5004954;28;20221;-79
2023/06/02 06:07:14;;;;;;;19.35;5.00;;;14.60;99.90;;;;;;5002333;28;20255;-77
2023/06/02 06:09:40;;;;;;;17.98;4.63;;;14.70;99.90;;;;;;5001109;28;20288;-78
2023/06/02 06:12:06;;;;;;;23.50;5.05;;;14.80;99.90;;;;;;5002722;28;20181;-77
2023/06/02 06:14:31;;;;;;;14.82;4.22;;;14.80;99.90;;;;;;5002951;28;20231;-77
2023/06/02 06:16:57;;;;;;;17.38;4.40;;;14.80;99.90;;;;;;5001437;28;20758;-77
2023/06/02 06:19:22;;;;;;;20.85;5.03;;;14.80;99.90;;;;;;5004365;28;20231;-78
2023/06/02 06:21:48;;;;;;;17.85;4.93;;;14.80;99.90;;;;;;5002491;28;20217;-78
2023/06/02 06:24:14;;;;;;;22.45;4.88;;;14.70;99.90;;;;;;5003941;28;20275;-77
2023/06/02 06:26:40;;;;;;;17.60;4.60;;;14.80;99.90;;;;;;5004549;28;20197;-78
2023/06/02 06:29:05;;;;;;;16.42;4.40;;;14.70;99.90;;;;;;5004355;28;20205;-78
2023/06/02 06:31:32;;;;;;;18.67;4.20;;;14.80;99.90;;;;;;5001225;28;20220;-76
2023/06/02 06:33:58;;;;;;;19.77;5.22;;;14.70;99.90;;;;;;5007975;28;20201;-78
2023/06/02 06:36:24;;;;;;;14.75;5.10;;;14.60;99.90;;;;;;5010348;28;20233;-78
2023/06/02 06:38:49;;;;;;;15.13;4.65;;;14.60;99.90;;;;;;5007185;28;20185;-79
2023/06/02 06:41:16;;;;;;;16.13;4.97;;;14.60;99.90;;;;;;5005081;28;20707;-77
2023/06/02 06:43:42;;;;;;;13.32;4.43;;;14.60;99.90;;;;;;5006880;28;20240;-78
2023/06/02 06:46:08;;;;;;;19.95;5.25;;;14.70;99.90;;;;;;5006638;28;20247;-78
2023/06/02 06:48:33;;;;;;;17.73;5.13;;;15.00;99.90;;;;;;5002342;28;20209;-77
2023/06/02 06:50:59;;;;;;;16.50;4.47;;;15.60;99.90;;;;;;5001255;28;20182;-77
2023/06/02 06:53:26;;;;;;;18.73;5.07;;;16.30;99.90;;;;;;5005206;28;20189;-78
2023/06/02 06:55:52;;;;;;;14.13;4.75;;;16.50;99.90;;;;;;5000939;28;20469;-78
2023/06/02 06:58:18;;;;;;;14.20;4.47;;;16.90;99.90;;;;;;5001574;28;20311;-78
2023/06/02 07:00:43;;;;;;;16.08;3.95;;;17.20;99.90;;;;;;5006710;28;20205;-78
2023/06/02 07:03:09;;;;;;;17.35;4.93;;;17.40;99.90;;;;;;5004352;28;20205;-78
2023/06/02 07:05:35;;;;;;;14.23;4.63;;;17.60;99.90;;;;;;5001532;28;20679;-78
2023/06/02 07:08:01;;;;;;;16.25;5.28;;;18.20;99.90;;;;;;5006579;28;20226;-77
2023/06/02 07:10:27;;;;;;;24.75;5.15;;;18.20;99.90;;;;;;5003060;28;20339;-77
2023/06/02 07:12:52;;;;;;;15.88;5.07;;;18.10;99.90;;;;;;5001538;28;20214;-77
2023/06/02 07:15:18;;;;;;;15.98;4.75;;;17.90;99.90;;;;;;5002979;28;20697;-77
2023/06/02 07:17:43;;;;;;;15.38;4.93;;;17.80;99.90;;;;;;5001662;28;20766;-77
2023/06/02 07:20:11;;;;;;;16.25;4.63;;;17.60;99.90;;;;;;5008173;28;20217;-78
2023/06/02 07:22:37;;;;;;;13.73;4.65;;;17.50;99.90;;;;;;5004359;28;20220;-77
2023/06/02 07:25:04;;;;;;;17.52;5.55;;;17.80;99.90;;;;;;5006590;28;20687;-76
2023/06/02 07:27:30;;;;;;;13.90;5.07;;;17.90;99.90;;;;;;5000585;28;20423;-77
2023/06/02 07:29:56;;;;;;;17.40;5.25;;;18.00;99.90;;;;;;5003461;28;20240;-77
2023/06/02 07:32:22;;;;;;;16.55;5.32;;;17.80;99.90;;;;;;5005458;28;20688;-79
2023/06/02 07:34:47;;;;;;;17.38;5.93;;;17.60;99.90;;;;;;5003504;28;20711;-77
2023/06/02 07:37:13;;;;;;;14.20;4.85;;;17.30;99.90;;;;;;4999825;28;20210;-77
2023/06/02 07:39:39;;;;;;;15.63;4.80;;;17.20;99.90;;;;;;5003005;28;20221;-77
2023/06/02 07:42:05;;;;;;;14.48;5.25;;;17.10;99.90;;;;;;5002931;28;20226;-78
2023/06/02 07:44:31;;;;;;;18.88;5.60;;;17.10;99.90;;;;;;5005438;28;20209;-77
2023/06/02 07:46:56;;;;;;;20.55;6.70;;;16.90;99.90;;;;;;5002665;28;20222;-77
2023/06/02 07:49:22;;;;;;;15.55;6.90;;;16.40;99.90;;;;;;5004240;28;20216;-76
2023/06/02 07:51:48;;;;;;;21.25;6.32;;;16.30;99.90;;;;;;4999236;28;20224;-78
2023/06/02 07:54:14;;;;;;;15.45;5.85;;;16.40;99.90;;;;;;5001312;28;20180;-77
2023/06/02 07:56:39;;;;;;;10.18;5.57;;;16.30;99.90;;;;;;4998705;28;20204;-77
2023/06/02 07:59:05;;;;;;;20.70;7.82;;;16.50;99.90;;;;;;5005810;28;20212;-77
2023/06/02 08:01:31;;;;;;;14.43;6.30;;;16.40;99.90;;;;;;5005540;28;20209;-77
2023/06/02 08:03:56;;;;;;;16.48;7.35;;;16.30;99.90;;;;;;5002313;28;20228;-77
2023/06/02 08:06:22;;;;;;;14.65;7.10;;;16.40;99.90;;;;;;5001077;28;20278;-77
2023/06/02 08:08:48;;;;;;;18.08;5.40;;;16.40;99.90;;;;;;5000674;28;20577;-73
2023/06/02 08:11:13;;;;;;;17.23;6.45;;;16.30;99.90;;;;;;5000984;28;20625;-74
2023/06/02 08:13:39;;;;;;;11.18;5.55;;;16.40;99.90;;;;;;4996638;28;20329;-74
2023/06/02 08:16:06;;;;;;;12.55;6.03;;;16.40;99.90;;;;;;4998038;28;20205;-75
2023/06/02 08:18:31;;;;;;;9.30;4.95;;;16.40;99.90;;;;;;5000205;28;20231;-75
2023/06/02 08:20:57;;;;;;;11.30;5.30;;;16.40;99.90;;;;;;4998985;28;20181;-74
2023/06/02 08:23:23;;;;;;;9.80;5.30;;;16.40;99.90;;;;;;5001346;28;20173;-74
2023/06/02 08:25:49;;;;;;;12.95;5.05;;;16.30;99.90;;;;;;4998665;28;20652;-72
2023/06/02 08:28:14;;;;;;;19.27;9.52;;;16.30;99.90;;;;;;4997667;28;20205;-74
2023/06/02 08:30:46;;;;;;;22.52;10.93;;;16.20;99.90;;;;;;5001257;28;20303;-73
2023/06/02 08:33:11;;;;;;;13.55;7.13;;;16.20;99.90;;;;;;5006334;28;20262;-74
2023/06/02 08:35:37;;;;;;;15.73;5.00;;;16.10;99.90;;;;;;4998805;28;20649;-75
2023/06/02 08:38:07;;;;;;;10.20;5.22;;;16.10;99.90;;;;;;5000869;28;20208;-74
2023/06/02 08:40:39;;;;;;;24.17;12.32;;;16.20;99.90;;;;;;4998990;28;20655;-75
2023/06/02 08:43:08;;;;;;;17.48;7.82;;;16.40;99.90;;;;;;4998632;28;20202;-74
2023/06/02 08:45:34;;;;;;;15.63;5.80;;;16.80;99.90;;;;;;4997669;28;20225;-74
2023/06/02 08:48:05;;;;;;;8.20;3.65;;;17.30;99.90;;;;;;4997185;28;20524;-74
2023/06/02 08:50:35;;;;;;;7.47;4.18;;;17.80;99.90;;;;;;5003262;28;20200;-75
2023/06/02 08:53:03;;;;;;;8.43;3.65;;;18.30;99.90;;;;;;5003467;28;20293;-74
2023/06/02 08:55:29;;;;;;;6.10;2.92;;;18.30;99.90;;;;;;5002582;28;20213;-75
2023/06/02 08:57:54;;;;;;;9.30;3.38;;;18.60;99.90;;;;;;5000423;28;20228;-76
2023/06/02 09:00:20;;;;;;;7.15;2.85;;;18.80;99.90;;;;;;5005484;28;20347;-75
2023/06/02 09:02:47;;;;;;;5.82;2.90;;;19.30;99.90;;;;;;5002928;28;20186;-76
2023/06/02 09:05:16;;;;;;;5.55;2.65;;;19.20;99.90;;;;;;5004088;28;20761;-74
2023/06/02 09:07:47;;;;;;;3.83;2.58;;;19.40;99.90;;;;;;5002190;28;20217;-74
2023/06/02 09:10:30;;;;;;;5.28;2.40;;;19.10;99.90;;;;;;5005214;28;20889;-75
2023/06/02 09:12:56;;;;;;;5.15;2.22;;;19.30;99.90;;;;;;5002675;28;20742;-76
2023/06/02 09:15:24;;;;;;;7.07;2.05;;;18.00;99.90;;;;;;5002620;28;20209;-75
2023/06/02 09:17:50;;;;;;;3.55;2.10;;;18.00;99.90;;;;;;5003429;28;20190;-75
2023/06/02 09:20:15;;;;;;;3.88;2.15;;;18.00;99.90;;;;;;5012212;28;20212;-76
2023/06/02 09:22:55;;;;;;;4.53;2.45;;;18.00;99.90;;;;;;5008632;28;20280;-72
2023/06/02 09:25:28;;;;;;;4.55;2.22;;;18.40;99.90;;;;;;5004841;28;20229;-75
2023/06/02 09:27:56;;;;;;;4.32;2.85;;;19.20;99.90;;;;;;5002175;28;20252;-74
2023/06/02 09:30:21;;;;;;;6.03;1.90;;;19.60;99.90;;;;;;5004476;28;20646;-74
2023/06/02 09:33:04;;;;;;;5.18;1.90;;;19.50;99.90;;;;;;5002386;28;20267;-76
2023/06/02 09:35:44;;;;;;;4.70;1.70;;;19.40;99.90;;;;;;4997615;28;20207;-77
2023/06/02 09:38:15;;;;;;;3.95;1.98;;;19.00;99.90;;;;;;5003786;28;20211;-74
2023/06/02 09:40:41;;;;;;;3.70;2.47;;;18.60;99.90;;;;;;5006193;28;20214;-77
2023/06/02 09:43:10;;;;;;;2.78;1.65;;;18.70;99.90;;;;;;5004227;28;20288;-75
2023/06/02 09:45:48;;;;;;;5.07;1.90;;;18.90;99.90;;;;;;5007226;28;20224;-76
2023/06/02 09:48:22;;;;;;;2.60;1.42;;;19.40;99.90;;;;;;5002711;28;20650;-76
2023/06/02 09:50:49;;;;;;;3.67;1.60;;;19.30;99.90;;;;;;5002953;28;20539;-77
2023/06/02 09:53:17;;;;;;;2.85;1.50;;;19.50;99.90;;;;;;5003428;28;20236;-74
2023/06/02 09:55:44;;;;;;;2.42;1.50;;;19.40;99.90;;;;;;5004773;28;20701;-72
2023/06/02 09:58:11;;;;;;;3.88;1.50;;;19.80;99.90;;;;;;5004897;28;20213;-75
2023/06/02 10:00:37;;;;;;;4.75;1.70;;;20.50;99.90;;;;;;5003781;28;20585;-76
2023/06/02 10:03:03;;;;;;;3.20;1.38;;;20.80;99.90;;;;;;5006762;28;20176;-76
2023/06/02 10:05:29;;;;;;;3.95;1.63;;;20.80;99.90;;;;;;5006308;28;20210;-73
2023/06/02 10:08:10;;;;;;;4.13;1.60;;;20.60;99.90;;;;;;5005842;28;20201;-75
2023/06/02 10:10:58;;;;;;;2.70;1.38;;;20.00;99.90;;;;;;5003537;28;20209;-74
2023/06/02 10:13:40;;;;;;;3.28;1.40;;;19.80;99.90;;;;;;5002227;28;20217;-74
2023/06/02 10:16:33;;;;;;;1.80;1.10;;;19.60;99.90;;;;;;5004229;28;20216;-76
2023/06/02 10:19:47;;;;;;;2.95;1.40;;;19.40;99.90;;;;;;5002388;28;20201;-76
2023/06/02 10:22:30;;;;;;;2.13;1.35;;;19.40;99.90;;;;;;5004038;28;20695;-74
2023/06/02 10:25:14;;;;;;;3.00;1.25;;;19.50;99.90;;;;;;5001453;28;20320;-77
2023/06/02 10:27:44;;;;;;;4.20;1.40;;;19.70;99.90;;;;;;4999437;28;20596;-78
2023/06/02 10:30:10;;;;;;;2.90;1.35;;;20.00;99.90;;;;;;5005329;28;20625;-78
2023/06/02 10:32:45;;;;;;;4.80;1.42;;;20.10;99.90;;;;;;5003620;28;20189;-78
2023/06/02 10:35:11;;;;;;;2.58;1.38;;;20.10;99.90;;;;;;5003241;28;20679;-78
2023/06/02 10:37:37;;;;;;;2.67;1.30;;;19.90;99.90;;;;;;5001762;28;20276;-78
2023/06/02 10:40:04;;;;;;;3.95;1.70;;;20.40;99.90;;;;;;5001296;28;20788;-77
2023/06/02 10:42:31;;;;;;;7.53;1.63;;;20.20;99.90;;;;;;5003006;28;20229;-77
2023/06/02 10:45:18;;;;;;;6.78;4.35;;;20.50;99.90;;;;;;5001549;28;20192;-77
2023/06/02 10:47:46;;;;;;;5.25;1.67;;;20.60;99.90;;;;;;5001652;28;20209;-77
2023/06/02 10:50:14;;;;;;;8.52;5.35;;;20.60;99.90;;;;;;5002339;28;20582;-77
2023/06/02 10:52:59;;;;;;;8.30;1.98;;;20.40;99.90;;;;;;5003040;28;20224;-77
2023/06/02 10:55:26;;;;;;;4.00;2.35;;;20.20;99.90;;;;;;5002167;28;20216;-78
2023/06/02 10:57:58;;;;;;;12.82;5.60;;;20.10;99.90;;;;;;5000911;28;20216;-77
2023/06/02 11:00:32;;;;;;;2.38;1.40;;;20.20;99.90;;;;;;5008039;28;20236;-76
2023/06/02 11:03:05;;;;;;;2.53;1.35;;;20.50;99.90;;;;;;5001781;28;20189;-78
2023/06/02 11:05:32;;;;;;;3.92;1.20;;;19.80;99.90;;;;;;5005309;28;20283;-77
2023/06/02 11:08:16;;;;;;;3.38;1.75;;;20.00;99.90;;;;;;5000096;28;20735;-78
2023/06/02 11:10:43;;;;;;;4.43;1.27;;;19.80;99.90;;;;;;4999835;28;20289;-79
2023/06/02 11:13:12;;;;;;;4.68;1.60;;;19.90;99.90;;;;;;5000604;28;20216;-78
2023/06/02 11:15:38;;;;;;;3.95;1.25;;;20.00;99.90;;;;;;4999716;28;20251;-78
2023/06/02 11:18:22;;;;;;;2.95;1.27;;;19.80;99.90;;;;;;4999475;28;20200;-77
2023/06/02 11:20:52;;;;;;;6.47;1.80;;;19.60;99.90;;;;;;5000594;28;20181;-79
2023/06/02 11:23:18;;;;;;;4.30;1.45;;;19.90;99.90;;;;;;4996826;28;20213;-78
2023/06/02 11:26:04;;;;;;;6.15;1.65;;;20.00;99.90;;;;;;5005417;28;20239;-77
2023/06/02 11:28:30;;;;;;;3.05;1.45;;;20.00;99.90;;;;;;5003657;28;20215;-77
2023/06/02 11:31:14;;;;;;;6.03;1.98;;;20.10;99.90;;;;;;5002458;28;20217;-78
2023/06/02 11:33:51;;;;;;;3.33;1.63;;;20.60;99.90;;;;;;4999747;28;20217;-78
2023/06/02 11:36:39;;;;;;;6.57;1.38;;;20.90;99.90;;;;;;5002239;28;20653;-77
2023/06/02 11:39:09;;;;;;;3.90;1.30;;;20.60;99.90;;;;;;5000435;28;20205;-78
2023/06/02 11:41:35;;;;;;;3.72;1.95;;;20.40;99.90;;;;;;5003513;28;20179;-77
2023/06/02 11:44:05;;;;;;;5.03;1.88;;;20.30;99.90;;;;;;4999111;28;20252;-77
2023/06/02 11:46:31;;;;;;;6.43;1.35;;;20.20;99.90;;;;;;5002131;28;20750;-77
2023/06/02 11:48:57;;;;;;;4.18;1.35;;;20.00;99.90;;;;;;5005220;28;20299;-77
2023/06/02 11:51:23;;;;;;;9.48;1.60;;;20.10;99.90;;;;;;5002853;28;20247;-77
2023/06/02 11:54:04;;;;;;;2.80;1.67;;;20.10;99.90;;;;;;4998029;28;20201;-77
2023/06/02 11:56:31;;;;;;;3.40;1.95;;;20.20;99.90;;;;;;5004808;28;20240;-77
2023/06/02 11:58:57;;;;;;;5.32;1.70;;;20.10;99.90;;;;;;5001030;28;20205;-77
2023/06/02 12:01:23;;;;;;;3.65;1.50;;;20.10;99.90;;;;;;5000058;28;20216;-77
2023/06/02 12:04:05;;;;;;;5.10;1.60;;;20.10;99.90;;;;;;5008104;28;20588;-77
2023/06/02 12:06:31;;;;;;;6.03;2.05;;;19.70;99.50;;;;;;5004612;28;20587;-78
2023/06/02 12:09:12;;;;;;;4.55;1.58;;;19.60;99.90;;;;;;4999937;28;20259;-77
2023/06/02 12:11:38;;;;;;;3.22;1.33;;;19.40;98.60;;;;;;4996482;28;20181;-76
2023/06/02 12:14:06;;;;;;;3.67;1.27;;;19.50;99.20;;;;;;4999665;28;20222;-76
2023/06/02 12:16:34;;;;;;;3.13;1.35;;;19.80;98.90;;;;;;5000658;28;20278;-77
2023/06/02 12:19:20;;;;;;;4.25;1.50;;;19.70;96.80;;;;;;4997462;28;20308;-77
2023/06/02 12:21:47;;;;;;;7.82;3.58;;;19.80;96.40;;;;;;5001541;28;20213;-77
2023/06/02 12:24:37;;;;;;;7.32;3.70;;;19.90;96.40;;;;;;5003668;28;20284;-77
2023/06/02 12:27:04;;;;;;;1.83;1.27;;;19.80;94.20;;;;;;5005484;28;20199;-77
2023/06/02 12:29:30;;;;;;;5.20;1.30;;;19.70;94.30;;;;;;5011858;28;20209;-77
2023/06/02 12:32:06;;;;;;;4.60;1.30;;;19.80;93.60;;;;;;5003340;28;20220;-76
2023/06/02 12:34:32;;;;;;;3.72;1.20;;;19.80;93.80;;;;;;5005429;28;20220;-76
2023/06/02 12:36:59;;;;;;;3.22;1.15;;;19.70;92.00;;;;;;5003516;28;20221;-77
2023/06/02 12:39:24;;;;;;;2.42;1.10;;;19.50;91.20;;;;;;4999480;28;20247;-76
2023/06/02 12:41:50;;;;;;;0.93;0.75;;;19.40;91.60;;;;;;5005988;28;20651;-77
2023/06/02 12:44:17;;;;;;;4.15;1.10;;;19.10;89.50;;;;;;5001695;28;20213;-76